Time;durP1;ratioP1;P1;durP2;ratioP2;P2;SDS_P1;SDS_P2;PMS_P1;PMS_P2;Temp;Humidity;BMP_temperature;BMP_pressure;BME280_temperature;BME280_humidity;BME280_pressure;Samples;Min_cycle;Max_cycle;Signal;HPM_P1;HPM_P2
2023/10/06 04:01:31;;;;;;;0.60;0.10;;;12.20;99.90;;;;;;5502117;23;20975;-75
2023/10/06 04:03:59;;;;;;;0.60;0.10;;;12.20;99.90;;;;;;4992529;28;20956;-74
2023/10/06 04:06:27;;;;;;;0.60;0.10;;;12.10;99.90;;;;;;5002374;28;20471;-75
2023/10/06 04:08:57;;;;;;;0.60;0.10;;;12.00;99.90;;;;;;5005473;28;20482;-75
2023/10/06 04:11:29;;;;;;;0.60;0.10;;;11.90;99.90;;;;;;4990897;28;20908;-74
2023/10/06 04:13:58;;;;;;;0.60;0.10;;;11.80;99.90;;;;;;4973008;28;20502;-74
2023/10/06 04:16:26;;;;;;;0.60;0.10;;;11.90;99.90;;;;;;5008822;23;20497;-69
2023/10/06 04:18:55;;;;;;;0.60;0.20;;;11.90;99.90;;;;;;4991578;28;20454;-70
2023/10/06 04:21:24;;;;;;;0.60;0.10;;;11.90;99.90;;;;;;4992387;28;20450;-69
2023/10/06 04:23:52;;;;;;;0.60;0.10;;;11.90;99.90;;;;;;4992747;28;20446;-70
2023/10/06 04:26:22;;;;;;;0.60;0.10;;;11.90;99.90;;;;;;4989645;28;20467;-70
2023/10/06 04:28:50;;;;;;;0.60;0.10;;;11.90;99.90;;;;;;4993756;28;21099;-70
2023/10/06 04:31:18;;;;;;;0.60;0.10;;;12.00;99.90;;;;;;4978282;28;20996;-71
2023/10/06 04:33:46;;;;;;;0.60;0.10;;;12.00;99.90;;;;;;4990869;28;20520;-70
2023/10/06 04:36:20;;;;;;;0.60;0.10;;;12.10;99.90;;;;;;4998063;28;20465;-69
2023/10/06 04:38:49;;;;;;;0.60;0.20;;;12.10;99.90;;;;;;4992328;28;20441;-70
2023/10/06 04:41:20;;;;;;;0.60;0.10;;;12.10;99.90;;;;;;4991699;28;20938;-70
2023/10/06 04:43:48;;;;;;;0.60;0.13;;;12.10;99.90;;;;;;4991639;28;20462;-70
2023/10/06 04:46:16;;;;;;;0.60;0.10;;;12.10;99.90;;;;;;4990238;28;20472;-70
2023/10/06 04:48:44;;;;;;;0.60;0.10;;;12.00;99.90;;;;;;4989567;28;20491;-70
2023/10/06 04:51:13;;;;;;;0.60;0.10;;;11.90;99.90;;;;;;4977442;28;20460;-71
2023/10/06 04:53:45;;;;;;;0.60;0.10;;;11.90;99.90;;;;;;4980185;28;20583;-71
2023/10/06 04:56:14;;;;;;;0.60;0.10;;;11.90;99.90;;;;;;4979077;28;20471;-70
2023/10/06 04:58:42;;;;;;;0.60;0.10;;;12.00;99.90;;;;;;4979704;28;20535;-70
2023/10/06 05:01:11;;;;;;;0.60;0.10;;;11.90;99.90;;;;;;4977211;28;20499;-70
2023/10/06 05:03:43;;;;;;;0.60;0.10;;;12.00;99.90;;;;;;4985380;28;20454;-70
2023/10/06 05:06:15;;;;;;;0.60;0.10;;;12.00;99.90;;;;;;4981729;28;20517;-70
2023/10/06 05:08:46;;;;;;;0.60;0.10;;;;;;;;;;4984926;28;20469;-71
2023/10/06 05:11:15;;;;;;;0.60;0.10;;;11.90;99.90;;;;;;4984268;28;20968;-71
2023/10/06 05:13:43;;;;;;;0.60;0.10;;;11.80;99.90;;;;;;4987496;28;20822;-70
2023/10/06 05:16:11;;;;;;;0.60;0.10;;;11.90;99.90;;;;;;4993972;28;20806;-71
2023/10/06 05:18:39;;;;;;;0.60;0.10;;;11.90;99.90;;;;;;4993792;28;20466;-70
2023/10/06 05:21:06;;;;;;;0.60;0.10;;;11.90;99.90;;;;;;4986942;28;20481;-69
2023/10/06 05:23:35;;;;;;;0.60;0.10;;;11.90;99.90;;;;;;4988096;28;20494;-68
2023/10/06 05:26:08;;;;;;;0.60;0.10;;;11.90;99.90;;;;;;4994911;28;20478;-69
2023/10/06 05:28:37;;;;;;;0.60;0.10;;;11.90;99.90;;;;;;4988244;28;20446;-69
2023/10/06 05:31:07;;;;;;;0.60;0.10;;;11.90;99.90;;;;;;4978803;28;20586;-69
2023/10/06 05:33:36;;;;;;;0.60;0.10;;;;;;;;;;4985449;28;20822;-70
2023/10/06 05:36:10;;;;;;;0.60;0.10;;;12.10;99.90;;;;;;4987861;28;20504;-69
2023/10/06 05:38:39;;;;;;;0.70;0.40;;;12.10;99.90;;;;;;4994624;28;20859;-70
2023/10/06 05:41:11;;;;;;;0.60;0.10;;;12.10;99.90;;;;;;4994513;28;20443;-74
2023/10/06 05:43:40;;;;;;;1.90;1.80;;;12.20;99.90;;;;;;4987689;28;20470;-70
2023/10/06 05:46:09;;;;;;;0.60;0.10;;;12.30;99.90;;;;;;4987858;28;20475;-70
2023/10/06 05:48:38;;;;;;;0.60;0.10;;;12.30;99.90;;;;;;4987039;28;20933;-70
2023/10/06 05:51:09;;;;;;;0.60;0.10;;;12.30;99.90;;;;;;4990314;28;20870;-70
2023/10/06 05:53:41;;;;;;;0.60;0.10;;;12.30;99.90;;;;;;4986327;28;20498;-70
2023/10/06 05:56:10;;;;;;;0.60;0.30;;;12.30;99.90;;;;;;4989436;28;20468;-70
2023/10/06 05:58:40;;;;;;;0.60;0.10;;;12.30;99.90;;;;;;4986308;28;20438;-70
2023/10/06 06:01:10;;;;;;;0.60;0.10;;;12.30;99.90;;;;;;4992843;28;20533;-70
2023/10/06 06:03:45;;;;;;;0.60;0.10;;;13.00;99.90;;;;;;4993196;28;20447;-69
2023/10/06 06:06:15;;;;;;;0.60;0.10;;;12.30;99.90;;;;;;4993134;28;20510;-70
2023/10/06 06:08:47;;;;;;;0.60;0.10;;;12.30;99.90;;;;;;4993715;28;20440;-69
2023/10/06 06:11:17;;;;;;;0.60;0.10;;;12.40;99.90;;;;;;4985724;28;20510;-69
2023/10/06 06:13:45;;;;;;;0.60;0.10;;;12.40;99.90;;;;;;4993669;28;20517;-70
2023/10/06 06:16:30;;;;;;;0.60;0.10;;;12.50;99.90;;;;;;4993377;28;20475;-69
2023/10/06 06:18:58;;;;;;;0.60;0.10;;;12.50;99.90;;;;;;4988159;28;20452;-69
2023/10/06 06:21:26;;;;;;;0.60;0.10;;;12.50;99.90;;;;;;4992882;28;20453;-70
2023/10/06 06:23:56;;;;;;;0.60;0.10;;;12.40;99.90;;;;;;4982803;28;20459;-69
2023/10/06 06:26:26;;;;;;;0.60;0.20;;;12.30;99.90;;;;;;4983707;28;20468;-69
2023/10/06 06:28:54;;;;;;;0.60;0.10;;;12.20;99.90;;;;;;4975061;28;21050;-70
2023/10/06 06:31:22;;;;;;;0.60;0.10;;;12.30;99.90;;;;;;4981804;28;20511;-70
2023/10/06 06:33:56;;;;;;;0.50;0.10;;;12.30;99.90;;;;;;4984268;28;20462;-70
2023/10/06 06:36:25;;;;;;;0.60;0.10;;;12.40;99.90;;;;;;4975834;28;20484;-70
2023/10/06 06:38:53;;;;;;;0.60;0.10;;;12.40;99.90;;;;;;4975736;28;20456;-68
2023/10/06 06:41:22;;;;;;;0.60;0.10;;;12.40;99.90;;;;;;4982636;28;20470;-68
2023/10/06 06:43:57;;;;;;;0.60;0.10;;;12.40;99.90;;;;;;4994046;28;20490;-68
2023/10/06 06:46:29;;;;;;;0.60;0.10;;;12.30;99.90;;;;;;4993286;28;20475;-69
2023/10/06 06:48:58;;;;;;;0.60;0.10;;;12.30;99.90;;;;;;4993627;28;20474;-69
2023/10/06 06:51:30;;;;;;;0.60;0.10;;;12.20;99.90;;;;;;4993559;28;20550;-70
2023/10/06 06:53:58;;;;;;;0.60;0.10;;;12.20;99.90;;;;;;4993451;28;20456;-69
2023/10/06 06:56:28;;;;;;;0.60;0.10;;;12.20;99.90;;;;;;4993592;28;20467;-70
2023/10/06 06:58:59;;;;;;;0.60;0.10;;;12.20;99.90;;;;;;4993149;28;20501;-68
2023/10/06 07:01:28;;;;;;;0.60;0.10;;;12.30;99.90;;;;;;4993346;28;20454;-69
2023/10/06 07:03:56;;;;;;;0.60;0.10;;;12.30;99.90;;;;;;4993402;28;20526;-70
2023/10/06 07:06:27;;;;;;;0.60;0.10;;;12.30;99.90;;;;;;4993300;28;20502;-69
2023/10/06 07:08:57;;;;;;;0.60;0.10;;;;;;;;;;4993116;28;20483;-70
2023/10/06 07:11:26;;;;;;;0.60;0.10;;;12.40;99.90;;;;;;4993059;28;20575;-70
2023/10/06 07:13:55;;;;;;;0.60;0.10;;;12.40;99.90;;;;;;4992981;28;20575;-69
2023/10/06 07:16:25;;;;;;;0.60;0.10;;;12.40;99.90;;;;;;4992513;28;21037;-69
2023/10/06 07:18:53;;;;;;;0.60;0.10;;;12.40;99.90;;;;;;4989150;28;20536;-70
2023/10/06 07:21:22;;;;;;;0.60;0.10;;;;;;;;;;4976141;28;20457;-69
2023/10/06 07:23:51;;;;;;;0.60;0.10;;;12.40;99.90;;;;;;4992976;28;20449;-69
2023/10/06 07:26:22;;;;;;;0.60;0.13;;;12.50;99.90;;;;;;4992207;28;20912;-69
2023/10/06 07:28:52;;;;;;;0.60;0.10;;;12.50;99.90;;;;;;4993312;28;20456;-70
2023/10/06 07:31:20;;;;;;;0.60;0.10;;;12.50;99.90;;;;;;4991719;28;20581;-69
2023/10/06 07:33:51;;;;;;;0.60;0.10;;;;;;;;;;4988179;28;20462;-70
2023/10/06 07:36:20;;;;;;;0.60;0.10;;;12.60;99.90;;;;;;4972282;28;20990;-69
2023/10/06 07:38:49;;;;;;;0.60;0.10;;;12.80;99.90;;;;;;4972884;28;20811;-70
2023/10/06 07:41:20;;;;;;;0.60;0.10;;;12.80;99.90;;;;;;4973090;28;20448;-70
2023/10/06 07:43:48;;;;;;;0.60;0.10;;;12.90;99.90;;;;;;4987347;28;20450;-68
2023/10/06 07:46:17;;;;;;;0.60;0.20;;;12.80;99.90;;;;;;4991526;28;21024;-69
2023/10/06 07:48:45;;;;;;;0.60;0.10;;;12.80;99.90;;;;;;4991720;28;20463;-69
2023/10/06 07:51:16;;;;;;;0.60;0.10;;;12.80;99.90;;;;;;4992069;28;20482;-68
2023/10/06 07:53:44;;;;;;;0.60;0.10;;;12.80;99.90;;;;;;4992270;28;20478;-70
2023/10/06 07:56:14;;;;;;;0.60;0.10;;;12.90;99.90;;;;;;4991675;28;20847;-68
2023/10/06 07:58:43;;;;;;;0.60;0.10;;;;;;;;;;4991929;28;20462;-67
2023/10/06 08:01:12;;;;;;;0.60;0.10;;;13.00;99.90;;;;;;4992354;28;20978;-67
2023/10/06 08:03:42;;;;;;;0.60;0.10;;;13.00;99.90;;;;;;4991538;28;21006;-68
2023/10/06 08:06:11;;;;;;;0.60;0.10;;;13.10;99.90;;;;;;4991717;28;20530;-68
2023/10/06 08:08:40;;;;;;;0.60;0.10;;;13.10;99.90;;;;;;4991797;28;20530;-73
2023/10/06 08:11:09;;;;;;;0.60;0.10;;;13.10;99.90;;;;;;4991687;28;20590;-70
2023/10/06 08:13:40;;;;;;;0.60;0.10;;;13.20;99.90;;;;;;4992387;28;20922;-69
2023/10/06 08:16:08;;;;;;;0.60;0.10;;;13.30;99.90;;;;;;4987105;28;20664;-69
2023/10/06 08:18:36;;;;;;;0.60;0.10;;;13.30;99.90;;;;;;4991506;28;20455;-70
2023/10/06 08:21:05;;;;;;;0.60;0.20;;;13.30;99.90;;;;;;4991179;28;20479;-70
2023/10/06 08:23:35;;;;;;;0.60;0.10;;;13.40;99.90;;;;;;4991598;28;20448;-68
2023/10/06 08:26:08;;;;;;;26.50;24.90;;;13.50;99.90;;;;;;4990862;28;20476;-69
2023/10/06 08:28:36;;;;;;;0.60;0.20;;;12.60;99.90;;;;;;4990694;28;21099;-68
2023/10/06 08:31:04;;;;;;;0.60;0.10;;;13.50;99.90;;;;;;4991206;28;20483;-68
2023/10/06 08:33:35;;;;;;;0.60;0.10;;;13.60;99.90;;;;;;4989148;28;20975;-68
2023/10/06 08:36:08;;;;;;;0.60;0.10;;;13.60;99.90;;;;;;4985836;28;21057;-68
2023/10/06 08:38:36;;;;;;;0.60;0.10;;;13.70;99.90;;;;;;4991155;28;20461;-68
2023/10/06 08:41:07;;;;;;;0.60;0.10;;;13.70;99.90;;;;;;4990988;28;20539;-68
2023/10/06 08:43:38;;;;;;;0.60;0.30;;;13.80;99.90;;;;;;4993539;28;20489;-69
2023/10/06 08:46:08;;;;;;;0.60;0.30;;;13.90;99.90;;;;;;4994674;28;21065;-69
2023/10/06 08:48:38;;;;;;;0.60;0.10;;;13.90;99.90;;;;;;5001762;28;20473;-69
2023/10/06 08:51:10;;;;;;;0.60;0.10;;;14.00;99.90;;;;;;4980631;28;21023;-69
2023/10/06 08:53:41;;;;;;;0.60;0.10;;;14.00;99.90;;;;;;4993704;28;20443;-69
2023/10/06 08:56:14;;;;;;;0.60;0.20;;;14.10;99.90;;;;;;4993054;28;20813;-70
2023/10/06 08:58:44;;;;;;;0.60;0.10;;;14.10;99.90;;;;;;4990734;28;20480;-70
2023/10/06 09:01:15;;;;;;;0.60;0.10;;;14.10;99.90;;;;;;4991345;28;20492;-70
2023/10/06 09:03:43;;;;;;;0.60;0.10;;;14.20;99.90;;;;;;4991351;28;20463;-69
2023/10/06 09:06:12;;;;;;;0.70;0.47;;;14.30;99.90;;;;;;4990200;28;20479;-70
2023/10/06 09:08:41;;;;;;;0.60;0.10;;;14.40;99.90;;;;;;4996172;28;20496;-69
2023/10/06 09:11:11;;;;;;;20.13;10.80;;;14.40;99.90;;;;;;4986519;28;20824;-68
2023/10/06 09:13:39;;;;;;;0.60;0.10;;;14.40;99.90;;;;;;4995645;28;20955;-68
2023/10/06 09:16:07;;;;;;;0.60;0.10;;;14.40;99.90;;;;;;4985461;28;20484;-68
2023/10/06 09:18:39;;;;;;;0.60;0.10;;;14.50;99.90;;;;;;4987988;28;20453;-67
2023/10/06 09:21:13;;;;;;;0.93;0.30;;;14.50;99.90;;;;;;4986347;28;20463;-69
2023/10/06 09:23:41;;;;;;;0.60;0.10;;;14.40;99.90;;;;;;4998827;28;20447;-68
2023/10/06 09:26:12;;;;;;;1.90;1.07;;;14.40;99.90;;;;;;4990576;28;20504;-68
2023/10/06 09:28:51;;;;;;;0.60;0.10;;;14.40;99.90;;;;;;4993176;28;20443;-69
2023/10/06 09:31:34;;;;;;;6.57;1.30;;;14.40;99.90;;;;;;4987515;28;20850;-69
2023/10/06 09:34:04;;;;;;;0.87;0.60;;;14.40;99.90;;;;;;4988398;28;20449;-68
2023/10/06 09:36:33;;;;;;;0.60;0.20;;;14.40;99.90;;;;;;4990204;28;20508;-70
2023/10/06 09:39:17;;;;;;;0.70;0.40;;;14.50;99.90;;;;;;4990504;28;20461;-68
2023/10/06 09:41:48;;;;;;;0.60;0.27;;;14.50;99.90;;;;;;4982373;28;20928;-68
2023/10/06 09:44:19;;;;;;;0.60;0.10;;;14.50;99.90;;;;;;4990436;28;20901;-68
2023/10/06 09:46:52;;;;;;;1.27;0.90;;;14.60;99.90;;;;;;4982827;28;20460;-70
2023/10/06 09:49:22;;;;;;;0.80;0.30;;;14.70;99.90;;;;;;4990747;28;20447;-69
2023/10/06 09:51:52;;;;;;;7.13;6.53;;;14.90;99.90;;;;;;4985613;28;20489;-68
2023/10/06 09:54:21;;;;;;;0.60;0.30;;;14.90;99.90;;;;;;4987322;28;20459;-69
2023/10/06 09:56:54;;;;;;;0.60;0.40;;;14.90;99.90;;;;;;5001801;28;20471;-69
2023/10/06 09:59:25;;;;;;;0.60;0.10;;;15.00;99.90;;;;;;4980568;28;20449;-69
2023/10/06 10:01:56;;;;;;;0.60;0.10;;;14.90;99.90;;;;;;4993533;28;20499;-70
2023/10/06 10:04:29;;;;;;;0.60;0.10;;;15.00;99.90;;;;;;4993532;28;20539;-69
2023/10/06 10:06:58;;;;;;;0.60;0.10;;;;;;;;;;4998746;28;20518;-69
2023/10/06 10:09:28;;;;;;;0.60;0.10;;;15.20;99.90;;;;;;4989884;28;20456;-68
2023/10/06 10:12:20;;;;;;;0.60;0.10;;;15.10;99.90;;;;;;4986678;28;20528;-68
2023/10/06 10:15:00;;;;;;;0.60;0.10;;;15.30;99.90;;;;;;4982957;28;20451;-68
2023/10/06 10:17:38;;;;;;;0.73;0.53;;;15.40;99.90;;;;;;5007057;23;20568;-90
2023/10/06 10:20:09;;;;;;;0.60;0.20;;;;;;;;;;4976013;28;20481;-89
2023/10/06 10:22:41;;;;;;;0.60;0.30;;;15.50;99.90;;;;;;4982699;28;20452;-86
2023/10/06 10:25:13;;;;;;;1.03;0.93;;;;;;;;;;4987962;28;20419;-87
2023/10/06 10:28:13;;;;;;;5.60;2.47;;;15.50;99.90;;;;;;4986540;28;20516;-85
2023/10/06 10:30:56;;;;;;;1.17;0.77;;;15.60;99.90;;;;;;4978338;28;20466;-92
2023/10/06 10:33:29;;;;;;;2.40;2.20;;;15.60;99.90;;;;;;4972355;28;20483;-91
2023/10/06 10:36:28;;;;;;;3.43;1.07;;;15.70;99.90;;;;;;4976118;28;20551;-86
2023/10/06 10:39:12;;;;;;;4.57;1.23;;;15.80;99.90;;;;;;4906291;29;20542;-89
2023/10/06 10:41:41;;;;;;;1.70;1.60;;;;;;;;;;4972599;28;20458;-88
2023/10/06 10:44:12;;;;;;;1.47;0.70;;;;;;;;;;4980626;28;20497;-91
2023/10/06 10:46:54;;;;;;;1.00;0.80;;;16.00;99.90;;;;;;4973512;28;20442;-90
2023/10/06 10:49:23;;;;;;;0.60;0.20;;;;;;;;;;4975419;28;20521;-90
2023/10/06 10:51:55;;;;;;;0.60;0.10;;;16.20;99.90;;;;;;4967600;28;20453;-90
2023/10/06 10:54:24;;;;;;;4.50;0.67;;;;;;;;;;4968508;28;20452;-86
2023/10/06 10:56:53;;;;;;;0.70;0.40;;;;;;;;;;4969724;28;20454;-85
2023/10/06 10:59:26;;;;;;;1.23;0.80;;;;;;;;;;4981939;28;20465;-89
2023/10/06 11:01:55;;;;;;;0.70;0.27;;;16.40;99.90;;;;;;4978155;28;20475;-85
2023/10/06 11:04:31;;;;;;;0.60;0.40;;;;;;;;;;4980989;28;20948;-88
2023/10/06 11:07:09;;;;;;;0.60;0.10;;;16.40;99.90;;;;;;4972891;28;20446;-87
2023/10/06 11:09:47;;;;;;;0.70;0.30;;;;;;;;;;4967893;28;20453;-86
2023/10/06 11:12:25;;;;;;;0.60;0.10;;;16.70;99.90;;;;;;4962151;29;20478;-87
2023/10/06 11:15:13;;;;;;;0.60;0.20;;;16.80;99.90;;;;;;4972947;28;20532;-85
2023/10/06 11:20:45;;;;;;;0.60;0.10;;;;;;;;;;4983759;28;20482;-88
2023/10/06 11:23:14;;;;;;;0.60;0.10;;;16.90;99.90;;;;;;4992541;28;20426;-86
2023/10/06 11:25:48;;;;;;;1.57;1.13;;;;;;;;;;4989540;28;20457;-90
2023/10/06 11:28:18;;;;;;;1.80;1.70;;;17.00;99.90;;;;;;4981719;28;20525;-89
2023/10/06 11:30:49;;;;;;;0.60;0.37;;;17.00;99.90;;;;;;4981526;28;20852;-87
2023/10/06 11:33:19;;;;;;;0.80;0.73;;;17.00;99.90;;;;;;4978927;28;20505;-87
2023/10/06 11:35:49;;;;;;;1.87;0.30;;;;;;;;;;4968774;28;20435;-91
2023/10/06 11:38:18;;;;;;;0.60;0.20;;;;;;;;;;4978537;28;20454;-88
2023/10/06 11:40:47;;;;;;;0.60;0.10;;;;;;;;;;4971857;28;20493;-88
2023/10/06 11:43:17;;;;;;;0.60;0.10;;;;;;;;;;4973821;28;20457;-88
2023/10/06 11:45:48;;;;;;;2.43;2.33;;;17.40;99.90;;;;;;4969710;28;20580;-89
2023/10/06 11:48:28;;;;;;;1.37;1.13;;;17.40;99.90;;;;;;4967192;28;20461;-88
2023/10/06 11:51:02;;;;;;;0.60;0.20;;;;;;;;;;4970316;28;20426;-85
2023/10/06 11:53:32;;;;;;;2.20;0.87;;;;;;;;;;4971197;28;20505;-87
2023/10/06 11:56:08;;;;;;;0.60;0.10;;;17.10;99.90;;;;;;4966407;28;20530;-88
2023/10/06 11:58:37;;;;;;;0.60;0.20;;;17.70;99.90;;;;;;4974519;28;20488;-87
2023/10/06 12:01:27;;;;;;;0.60;0.10;;;17.80;99.90;;;;;;4971537;28;20445;-92
2023/10/06 12:03:59;;;;;;;0.70;0.30;;;;;;;;;;4976292;28;20446;-93
2023/10/06 12:06:40;;;;;;;1.10;1.00;;;;;;;;;;4967536;28;20469;-87
2023/10/06 12:09:12;;;;;;;0.60;0.20;;;;;;;;;;4986281;28;20484;-88
2023/10/06 12:11:42;;;;;;;2.93;1.53;;;;;;;;;;4975659;28;20462;-90
2023/10/06 12:14:11;;;;;;;0.60;0.10;;;;;;;;;;4977446;28;20493;-90
2023/10/06 12:16:44;;;;;;;0.60;0.10;;;;;;;;;;4984380;28;20528;-88
2023/10/06 12:19:14;;;;;;;0.70;0.50;;;;;;;;;;4984411;28;20462;-88
2023/10/06 12:21:49;;;;;;;0.60;0.20;;;;;;;;;;4980765;28;20457;-91
2023/10/06 12:27:20;;;;;;;0.60;0.20;;;18.10;90.10;;;;;;4984718;28;20454;-88
2023/10/06 12:29:49;;;;;;;1.07;0.97;;;;;;;;;;4981793;28;20477;-89
2023/10/06 12:32:19;;;;;;;0.60;0.10;;;;;;;;;;4981376;28;20554;-91
2023/10/06 12:34:48;;;;;;;0.60;0.20;;;;;;;;;;4969101;28;20470;-89
2023/10/06 12:37:18;;;;;;;0.60;0.30;;;;;;;;;;4982610;28;20463;-86
2023/10/06 12:39:51;;;;;;;1.00;0.30;;;;;;;;;;4986942;28;20470;-88
2023/10/06 12:42:22;;;;;;;0.60;0.20;;;;;;;;;;4974952;28;20455;-91
2023/10/06 12:44:51;;;;;;;0.60;0.20;;;;;;;;;;4980909;28;20449;-91
2023/10/06 12:47:21;;;;;;;2.40;1.63;;;;;;;;;;4973955;28;20446;-90
2023/10/06 12:49:50;;;;;;;2.50;1.27;;;;;;;;;;4979126;28;20646;-85
2023/10/06 12:52:20;;;;;;;0.60;0.10;;;;;;;;;;4981471;28;20506;-91
2023/10/06 12:54:50;;;;;;;0.60;0.20;;;;;;;;;;4979170;28;20473;-92
2023/10/06 12:57:21;;;;;;;0.80;0.67;;;;;;;;;;4981755;28;20450;-89
2023/10/06 12:59:50;;;;;;;0.67;0.33;;;;;;;;;;4980623;28;20461;-90
2023/10/06 13:02:29;;;;;;;0.60;0.10;;;;;;;;;;4978258;28;20850;-91
2023/10/06 13:05:05;;;;;;;0.70;0.50;;;;;;;;;;4969441;28;20438;-90
2023/10/06 13:07:34;;;;;;;1.43;0.60;;;;;;;;;;4977501;28;20509;-91
2023/10/06 13:10:08;;;;;;;2.03;1.93;;;18.50;88.00;;;;;;4980871;28;20469;-88
2023/10/06 13:12:39;;;;;;;3.77;3.50;;;;;;;;;;4980060;28;20438;-90
2023/10/06 13:15:17;;;;;;;1.80;1.70;;;;;;;;;;4988920;28;20458;-92
2023/10/06 13:17:50;;;;;;;0.60;0.20;;;;;;;;;;4984232;28;20509;-92
2023/10/06 13:20:21;;;;;;;0.60;0.30;;;;;;;;;;4987675;28;20529;-90
2023/10/06 13:22:54;;;;;;;0.60;0.20;;;;;;;;;;4969455;28;20462;-86
2023/10/06 13:25:31;;;;;;;0.70;0.43;;;;;;;;;;4983674;28;20489;-89
2023/10/06 13:28:00;;;;;;;2.70;1.50;;;;;;;;;;4982982;28;20516;-87
2023/10/06 13:30:32;;;;;;;1.13;1.03;;;;;;;;;;4987446;28;20475;-87
2023/10/06 13:33:03;;;;;;;0.60;0.20;;;;;;;;;;4987444;28;20449;-89
2023/10/06 13:35:43;;;;;;;0.90;0.40;;;;;;;;;;4998443;28;20453;-89
2023/10/06 13:38:16;;;;;;;0.60;0.10;;;;;;;;;;4993517;28;20503;-91
2023/10/06 13:40:46;;;;;;;0.60;0.10;;;;;;;;;;4989623;28;20472;-89
2023/10/06 13:43:20;;;;;;;0.70;0.50;;;;;;;;;;4971142;28;20458;-90
2023/10/06 13:45:53;;;;;;;1.47;0.93;;;;;;;;;;4981576;28;20488;-90
2023/10/06 13:48:26;;;;;;;0.90;0.37;;;;;;;;;;4981195;28;20473;-88
2023/10/06 13:53:32;;;;;;;0.60;0.10;;;18.90;67.00;;;;;;4957289;28;20454;-76
2023/10/06 13:56:01;;;;;;;0.60;0.20;;;18.90;67.90;;;;;;4946330;29;20521;-75
2023/10/06 13:58:29;;;;;;;0.70;0.30;;;18.80;77.70;;;;;;4938816;29;20942;-74
2023/10/06 14:00:58;;;;;;;2.10;1.90;;;18.60;78.60;;;;;;4942181;29;20443;-74
2023/10/06 14:03:26;;;;;;;0.70;0.30;;;18.50;79.00;;;;;;4943343;29;20930;-75
2023/10/06 14:05:57;;;;;;;0.70;0.40;;;18.60;69.30;;;;;;4947468;29;20475;-75
2023/10/06 14:08:28;;;;;;;0.60;0.20;;;18.60;81.60;;;;;;4938686;29;20451;-76
2023/10/06 14:10:57;;;;;;;0.60;0.10;;;18.60;81.00;;;;;;4938617;29;20448;-75
2023/10/06 14:13:27;;;;;;;0.60;0.10;;;18.60;82.40;;;;;;4939825;29;20447;-76
2023/10/06 14:15:58;;;;;;;1.03;0.70;;;18.50;68.50;;;;;;4938936;29;20471;-73
2023/10/06 14:18:32;;;;;;;0.60;0.10;;;18.50;80.20;;;;;;4938553;29;20519;-75
2023/10/06 14:21:05;;;;;;;0.60;0.17;;;18.50;79.40;;;;;;4935699;29;20443;-74
2023/10/06 14:23:39;;;;;;;8.53;0.93;;;18.50;70.30;;;;;;4938750;29;20459;-75
2023/10/06 14:26:10;;;;;;;0.60;0.20;;;18.60;71.70;;;;;;4935852;29;20466;-75
2023/10/06 14:28:39;;;;;;;0.70;0.40;;;17.70;83.00;;;;;;4935506;29;20957;-74
2023/10/06 14:31:16;;;;;;;1.13;0.70;;;18.80;84.70;;;;;;4941528;29;20447;-76
2023/10/06 14:33:47;;;;;;;0.60;0.10;;;18.80;82.90;;;;;;4936802;29;20461;-75
2023/10/06 14:36:25;;;;;;;3.70;1.17;;;19.00;70.90;;;;;;4939002;29;20558;-75
2023/10/06 14:47:09;;;;;;;0.60;0.20;;;18.90;71.50;;;;;;4933694;29;20571;-75
2023/10/06 14:49:42;;;;;;;0.60;0.10;;;18.90;83.00;;;;;;4937147;29;20507;-75
2023/10/06 14:52:12;;;;;;;0.60;0.20;;;19.00;83.10;;;;;;4936977;29;20972;-73
2023/10/06 14:54:40;;;;;;;1.37;0.50;;;19.10;82.10;;;;;;4939234;29;20551;-75
2023/10/06 14:57:08;;;;;;;0.60;0.30;;;19.10;67.30;;;;;;4936057;29;20483;-75
2023/10/06 14:59:37;;;;;;;0.60;0.20;;;19.10;79.10;;;;;;4936209;29;20460;-76
2023/10/06 15:02:10;;;;;;;0.80;0.33;;;19.00;77.70;;;;;;4939999;29;20523;-75
2023/10/06 15:04:39;;;;;;;2.90;1.80;;;19.10;79.60;;;;;;4935549;29;20444;-75
2023/10/06 15:07:11;;;;;;;0.60;0.10;;;19.00;66.30;;;;;;4939096;29;20570;-74
2023/10/06 15:09:40;;;;;;;2.13;1.90;;;18.90;68.40;;;;;;4931439;29;20470;-76
2023/10/06 15:12:08;;;;;;;0.60;0.10;;;18.80;80.50;;;;;;4931180;29;20476;-74
2023/10/06 15:14:36;;;;;;;0.60;0.10;;;18.80;81.30;;;;;;4931845;29;20502;-73
2023/10/06 15:17:09;;;;;;;0.60;0.20;;;18.90;72.70;;;;;;4936288;29;20483;-74
2023/10/06 15:19:37;;;;;;;0.60;0.10;;;19.00;85.10;;;;;;4940681;29;20440;-74
2023/10/06 15:22:07;;;;;;;1.10;0.30;;;19.10;83.50;;;;;;4937226;29;20570;-74
2023/10/06 15:24:37;;;;;;;0.70;0.30;;;19.30;73.40;;;;;;4936984;29;20947;-73
2023/10/06 15:27:07;;;;;;;0.60;0.20;;;19.40;75.90;;;;;;4932441;29;20567;-76
2023/10/06 15:29:35;;;;;;;0.60;0.10;;;19.40;86.10;;;;;;4933385;29;20567;-74
2023/10/06 15:32:03;;;;;;;1.37;1.13;;;19.40;84.80;;;;;;4934794;29;20475;-74
2023/10/06 15:34:37;;;;;;;0.67;0.30;;;19.90;84.00;;;;;;4935074;29;20496;-75
2023/10/06 15:37:05;;;;;;;3.23;1.07;;;19.00;73.70;;;;;;4930124;29;20931;-73
2023/10/06 15:39:33;;;;;;;0.70;0.30;;;19.00;85.60;;;;;;4927789;29;20516;-74
2023/10/06 15:42:04;;;;;;;1.50;0.97;;;19.00;88.80;;;;;;4936996;29;20453;-75
2023/10/06 15:44:33;;;;;;;0.70;0.60;;;19.00;75.30;;;;;;4936980;29;20484;-74
2023/10/06 15:47:02;;;;;;;1.83;1.07;;;18.80;77.30;;;;;;4937355;29;20471;-76
2023/10/06 15:49:30;;;;;;;0.60;0.10;;;18.80;88.10;;;;;;4930291;29;20477;-77
2023/10/06 15:51:58;;;;;;;0.60;0.20;;;18.80;79.00;;;;;;4936177;29;20515;-76
2023/10/06 15:54:27;;;;;;;12.77;1.17;;;18.70;89.90;;;;;;4938078;29;20455;-74
2023/10/06 15:56:57;;;;;;;0.60;0.10;;;18.70;80.20;;;;;;4936245;29;20481;-75
2023/10/06 15:59:25;;;;;;;0.70;0.30;;;18.70;89.80;;;;;;4936715;29;20469;-76
2023/10/06 16:01:54;;;;;;;0.60;0.20;;;18.70;88.50;;;;;;4937185;29;20447;-72
2023/10/06 16:04:25;;;;;;;0.60;0.20;;;18.70;88.90;;;;;;4932992;29;20460;-75
2023/10/06 16:06:53;;;;;;;0.60;0.10;;;18.70;77.80;;;;;;4933273;29;20459;-73
2023/10/06 16:09:23;;;;;;;0.60;0.10;;;18.70;89.30;;;;;;4935058;29;20837;-74
2023/10/06 16:11:51;;;;;;;1.17;1.07;;;18.60;88.00;;;;;;4934463;29;20475;-75
2023/10/06 16:14:19;;;;;;;0.60;0.30;;;18.60;76.60;;;;;;4937083;29;20490;-72
2023/10/06 16:16:47;;;;;;;0.60;0.10;;;18.50;76.40;;;;;;4937895;29;20490;-74
2023/10/06 16:19:17;;;;;;;0.70;0.10;;;18.50;88.40;;;;;;4936700;29;20476;-74
2023/10/06 16:21:45;;;;;;;1.53;1.43;;;18.50;88.20;;;;;;4934545;29;20448;-74
2023/10/06 16:24:13;;;;;;;0.70;0.30;;;18.40;85.50;;;;;;4934536;29;20450;-74
2023/10/06 16:26:42;;;;;;;6.23;0.67;;;18.40;74.40;;;;;;4932938;29;20463;-74
2023/10/06 16:29:11;;;;;;;0.60;0.20;;;18.30;88.40;;;;;;4934441;29;20475;-73
2023/10/06 16:31:40;;;;;;;6.77;0.83;;;18.30;86.10;;;;;;4926044;29;20444;-73
2023/10/06 16:34:09;;;;;;;0.60;0.30;;;18.20;86.20;;;;;;4924995;29;20528;-73
2023/10/06 16:36:38;;;;;;;0.60;0.20;;;18.10;75.10;;;;;;4916010;29;20488;-73
2023/10/06 16:39:16;;;;;;;0.60;0.10;;;18.10;87.50;;;;;;4924383;29;20456;-74
2023/10/06 16:41:45;;;;;;;1.13;0.83;;;18.10;86.50;;;;;;4915224;29;20444;-75
2023/10/06 16:44:14;;;;;;;0.60;0.30;;;18.10;88.60;;;;;;4937178;29;20458;-72
2023/10/06 16:46:43;;;;;;;0.70;0.30;;;18.10;75.80;;;;;;4941586;29;20465;-74
2023/10/06 16:49:11;;;;;;;0.60;0.10;;;18.10;87.60;;;;;;4953485;29;20505;-74
2023/10/06 16:51:40;;;;;;;0.90;0.67;;;18.00;87.20;;;;;;4950626;29;20455;-72
2023/10/06 16:54:09;;;;;;;0.60;0.23;;;18.00;88.00;;;;;;4921829;29;20451;-74
2023/10/06 16:56:38;;;;;;;0.60;0.20;;;18.00;76.60;;;;;;4931959;29;20491;-74
2023/10/06 16:59:06;;;;;;;0.60;0.10;;;18.00;90.20;;;;;;4930838;29;20834;-72
2023/10/06 17:01:35;;;;;;;0.60;0.10;;;17.90;89.90;;;;;;4931973;29;20475;-74
2023/10/06 17:04:04;;;;;;;0.60;0.10;;;18.00;90.60;;;;;;4921947;29;20493;-74
2023/10/06 17:06:35;;;;;;;0.60;0.10;;;17.90;81.90;;;;;;4928473;29;20836;-74
2023/10/06 17:09:13;;;;;;;0.60;0.10;;;17.80;92.10;;;;;;4923828;29;20444;-74
2023/10/06 17:11:42;;;;;;;0.60;0.20;;;17.80;92.10;;;;;;4920755;29;20530;-76
2023/10/06 17:14:11;;;;;;;0.60;0.20;;;17.70;98.30;;;;;;4934347;29;20448;-74
2023/10/06 17:16:41;;;;;;;0.60;0.10;;;17.60;81.30;;;;;;4936693;29;21000;-74
2023/10/06 17:19:11;;;;;;;0.60;0.20;;;17.70;91.50;;;;;;4938087;29;20448;-75
2023/10/06 17:21:39;;;;;;;0.60;0.10;;;17.50;91.00;;;;;;4920341;29;20544;-77
2023/10/06 17:24:10;;;;;;;0.60;0.10;;;17.60;92.00;;;;;;4919760;29;20449;-76
2023/10/06 17:26:38;;;;;;;0.60;0.10;;;17.60;85.50;;;;;;4920357;29;20468;-76
2023/10/06 17:29:06;;;;;;;1.13;0.93;;;17.50;92.80;;;;;;4934771;29;20536;-76
2023/10/06 17:31:35;;;;;;;0.60;0.10;;;17.50;92.50;;;;;;4938402;29;20451;-75
2023/10/06 17:34:04;;;;;;;0.60;0.10;;;17.50;92.70;;;;;;4938375;29;20543;-73
2023/10/06 17:36:32;;;;;;;1.33;1.23;;;17.50;83.90;;;;;;4937323;29;20483;-75
2023/10/06 17:39:01;;;;;;;0.60;0.10;;;17.50;92.60;;;;;;4936075;29;21026;-73
2023/10/06 17:41:30;;;;;;;0.70;0.60;;;17.40;92.00;;;;;;4928977;29;20966;-74
2023/10/06 17:43:58;;;;;;;0.70;0.40;;;18.50;93.80;;;;;;4934933;29;20455;-74